createdAt,value
2023-07-19T00:01:41.640Z,20.61
2023-07-19T00:04:08.235Z,20.61
2023-07-19T00:06:36.055Z,20.27
2023-07-19T00:09:02.554Z,20.27
2023-07-19T00:11:29.211Z,20.30
2023-07-19T00:13:55.710Z,20.31
2023-07-19T00:16:22.152Z,20.27
2023-07-19T00:18:48.857Z,20.00
2023-07-19T00:21:15.311Z,20.14
2023-07-19T00:23:43.286Z,19.93
2023-07-19T00:26:09.748Z,20.38
2023-07-19T00:28:36.266Z,20.14
2023-07-19T00:31:03.185Z,20.27
2023-07-19T00:33:29.982Z,20.03
2023-07-19T00:35:56.455Z,19.97
2023-07-19T00:38:22.983Z,20.08
2023-07-19T00:40:51.261Z,20.03
2023-07-19T00:43:17.724Z,20.24
2023-07-19T00:45:47.111Z,20.28
2023-07-19T00:48:15.612Z,20.05
2023-07-19T00:50:42.755Z,20.27
2023-07-19T00:53:09.762Z,20.18
2023-07-19T00:55:36.586Z,20.23
2023-07-19T00:58:04.606Z,20.20
2023-07-19T01:00:31.090Z,20.00
2023-07-19T01:02:58.779Z,19.95
2023-07-19T01:05:25.606Z,19.88
2023-07-19T01:07:52.318Z,19.95
2023-07-19T01:10:18.815Z,19.97
2023-07-19T01:12:45.288Z,19.98
2023-07-19T01:15:13.366Z,20.18
2023-07-19T01:17:51.820Z,20.07
2023-07-19T01:20:18.293Z,19.90
2023-07-19T01:22:46.087Z,20.13
2023-07-19T01:25:12.929Z,20.02
2023-07-19T01:27:39.661Z,19.90
2023-07-19T01:30:07.471Z,20.00
2023-07-19T01:32:34.271Z,19.76
2023-07-19T01:35:00.777Z,19.62
2023-07-19T01:37:28.030Z,19.62
2023-07-19T01:39:56.133Z,19.70
2023-07-19T01:42:22.776Z,19.94
2023-07-19T01:44:49.205Z,19.86
2023-07-19T01:47:18.432Z,19.61
2023-07-19T01:49:44.903Z,19.35
2023-07-19T01:52:11.341Z,19.34
2023-07-19T01:54:37.844Z,19.51
2023-07-19T01:57:06.364Z,19.52
2023-07-19T01:59:32.938Z,19.62
2023-07-19T02:01:59.537Z,19.37
2023-07-19T02:04:26.203Z,19.56
2023-07-19T02:06:53.315Z,19.68
2023-07-19T02:09:19.837Z,19.55
2023-07-19T02:11:46.381Z,19.73
2023-07-19T02:14:14.326Z,19.80
2023-07-19T02:16:40.807Z,19.84
2023-07-19T02:19:08.035Z,19.82
2023-07-19T02:21:35.101Z,19.68
2023-07-19T02:24:02.410Z,19.55
2023-07-19T02:26:28.897Z,19.76
2023-07-19T02:28:55.349Z,19.33
2023-07-19T02:31:23.644Z,19.24
2023-07-19T02:33:50.466Z,18.96
2023-07-19T02:36:18.053Z,19.17
2023-07-19T02:38:44.518Z,19.42
2023-07-19T02:41:10.985Z,19.67
2023-07-19T02:43:39.333Z,19.55
2023-07-19T02:46:05.873Z,19.54
2023-07-19T02:48:33.865Z,19.18
2023-07-19T02:51:00.339Z,19.04
2023-07-19T02:53:26.978Z,19.26
2023-07-19T02:55:53.550Z,19.49
2023-07-19T02:58:19.993Z,19.51
2023-07-19T03:00:46.555Z,19.41
2023-07-19T03:03:13.824Z,19.55
2023-07-19T03:05:44.707Z,19.65
2023-07-19T03:08:11.487Z,19.84
2023-07-19T03:10:38.065Z,19.39
2023-07-19T03:13:05.081Z,19.43
2023-07-19T03:15:33.485Z,19.21
2023-07-19T03:18:00.090Z,19.21
2023-07-19T03:20:26.726Z,19.16
2023-07-19T03:22:54.645Z,19.19
2023-07-19T03:25:21.163Z,19.24
2023-07-19T03:27:47.620Z,19.11
2023-07-19T03:30:15.358Z,19.46
2023-07-19T03:32:41.802Z,19.27
2023-07-19T03:35:08.597Z,18.97
2023-07-19T03:37:35.460Z,19.00
2023-07-19T03:40:03.994Z,18.99
2023-07-19T03:42:30.604Z,19.07
2023-07-19T03:44:57.097Z,19.35
2023-07-19T03:47:23.684Z,19.30
2023-07-19T03:49:50.483Z,19.22
2023-07-19T03:52:16.984Z,19.17
2023-07-19T03:54:44.496Z,19.26
2023-07-19T03:57:12.305Z,19.37
2023-07-19T03:59:38.845Z,19.41
2023-07-19T04:02:06.170Z,19.30
2023-07-19T04:04:32.817Z,19.33
2023-07-19T04:06:59.446Z,19.48
2023-07-19T04:09:26.090Z,19.67
2023-07-19T04:11:52.606Z,19.21
2023-07-19T04:14:20.516Z,19.15
2023-07-19T04:16:47.011Z,18.97
2023-07-19T04:19:13.587Z,19.00
2023-07-19T04:21:40.087Z,18.95
2023-07-19T04:24:06.907Z,19.09
2023-07-19T04:26:33.464Z,19.01
2023-07-19T04:29:01.128Z,19.03
2023-07-19T04:31:29.067Z,18.99
2023-07-19T04:33:55.618Z,19.23
2023-07-19T04:36:22.418Z,19.32
2023-07-19T04:38:48.951Z,19.32
2023-07-19T04:41:15.498Z,19.50
2023-07-19T04:43:42.141Z,19.41
2023-07-19T04:46:08.661Z,19.11
2023-07-19T04:48:36.548Z,19.04
2023-07-19T04:51:03.279Z,19.08
2023-07-19T04:53:29.873Z,19.00
2023-07-19T04:55:56.412Z,18.83
2023-07-19T04:58:22.939Z,19.26
2023-07-19T05:00:49.585Z,19.24
2023-07-19T05:03:16.118Z,19.21
2023-07-19T05:05:43.992Z,19.28
2023-07-19T05:08:10.598Z,19.42
2023-07-19T05:10:37.751Z,19.37
2023-07-19T05:13:04.460Z,19.55
2023-07-19T05:15:31.311Z,19.78
2023-07-19T05:17:57.917Z,19.68
2023-07-19T05:20:24.631Z,20.18
2023-07-19T05:22:52.754Z,19.94
2023-07-19T05:25:19.636Z,20.01
2023-07-19T05:27:46.375Z,19.82
2023-07-19T05:30:13.595Z,19.75
2023-07-19T05:32:40.164Z,20.04
2023-07-19T05:35:07.513Z,20.24
2023-07-19T05:37:34.011Z,20.31
2023-07-19T05:40:01.929Z,20.45
2023-07-19T05:42:28.486Z,20.34
2023-07-19T05:44:54.983Z,20.21
2023-07-19T05:47:21.505Z,20.11
2023-07-19T05:49:48.221Z,20.14
2023-07-19T05:52:14.694Z,20.22
2023-07-19T05:54:41.123Z,20.51
2023-07-19T05:57:08.983Z,20.22
2023-07-19T05:59:35.455Z,20.41
2023-07-19T06:02:01.988Z,20.64
2023-07-19T06:04:28.761Z,20.55
2023-07-19T06:06:55.311Z,21.03
2023-07-19T06:09:21.993Z,21.03
2023-07-19T06:11:48.559Z,21.04
2023-07-19T06:14:16.342Z,21.31
2023-07-19T06:16:42.795Z,21.12
2023-07-19T06:19:12.701Z,21.06
2023-07-19T06:21:39.268Z,21.16
2023-07-19T06:24:06.599Z,20.89
2023-07-19T06:26:33.195Z,20.98
2023-07-19T06:28:59.661Z,21.23
2023-07-19T06:31:27.707Z,21.17
2023-07-19T06:33:54.697Z,21.41
2023-07-19T06:36:21.138Z,21.05
2023-07-19T06:38:47.860Z,21.09
2023-07-19T06:41:14.359Z,21.10
2023-07-19T06:43:40.822Z,21.19
2023-07-19T06:46:09.549Z,21.38
2023-07-19T06:48:38.992Z,21.08
2023-07-19T06:51:05.722Z,21.20
2023-07-19T06:53:32.235Z,21.46
2023-07-19T06:55:59.619Z,21.36
2023-07-19T06:58:26.438Z,21.65
2023-07-19T07:03:21.582Z,21.80
2023-07-19T07:05:49.928Z,22.30
2023-07-19T07:08:16.529Z,22.15
2023-07-19T07:10:43.275Z,21.85
2023-07-19T07:13:09.902Z,22.07
2023-07-19T07:15:36.492Z,22.40
2023-07-19T07:18:03.318Z,22.48
2023-07-19T07:20:29.910Z,22.60
2023-07-19T07:22:57.750Z,22.55
2023-07-19T07:25:24.365Z,22.50
2023-07-19T07:27:50.824Z,22.44
2023-07-19T07:30:17.573Z,22.27
2023-07-19T07:32:49.905Z,22.27
2023-07-19T07:35:16.583Z,22.20
2023-07-19T07:37:43.070Z,22.24
2023-07-19T07:40:11.604Z,22.09
2023-07-19T07:42:38.162Z,22.21
2023-07-19T07:45:06.131Z,22.50
2023-07-19T07:47:32.953Z,22.38
2023-07-19T07:49:59.485Z,22.42
2023-07-19T07:52:26.030Z,22.54
2023-07-19T07:54:52.687Z,22.38
2023-07-19T07:57:20.716Z,22.16
2023-07-19T07:59:47.240Z,22.28
2023-07-19T08:02:13.952Z,22.25
2023-07-19T08:04:40.477Z,22.36
2023-07-19T08:07:06.970Z,22.06
2023-07-19T08:09:33.795Z,22.36
2023-07-19T08:12:00.319Z,22.00
2023-07-19T08:14:28.108Z,22.70
2023-07-19T08:16:54.702Z,22.41
2023-07-19T08:19:21.237Z,22.55
2023-07-19T08:21:47.740Z,22.83
2023-07-19T08:24:14.300Z,23.01
2023-07-19T08:26:40.764Z,23.28
2023-07-19T08:29:07.202Z,23.15
2023-07-19T08:31:35.083Z,23.09
2023-07-19T08:34:01.631Z,23.54
2023-07-19T08:36:28.293Z,23.54
2023-07-19T08:38:55.052Z,23.19
2023-07-19T08:41:22.605Z,23.19
2023-07-19T08:43:49.302Z,23.40
2023-07-19T08:46:16.511Z,23.28
2023-07-19T08:48:46.768Z,23.31
2023-07-19T08:51:13.940Z,23.39
2023-07-19T08:53:40.435Z,23.14
2023-07-19T08:56:07.196Z,23.17
2023-07-19T08:58:37.122Z,23.37
2023-07-19T09:01:03.587Z,23.25
2023-07-19T09:03:30.120Z,23.02
2023-07-19T09:05:58.017Z,23.23
2023-07-19T09:08:35.290Z,23.12
2023-07-19T09:11:01.795Z,23.34
2023-07-19T09:13:31.179Z,23.01
2023-07-19T09:15:57.643Z,23.07
2023-07-19T09:18:27.774Z,23.37
2023-07-19T09:20:59.216Z,22.53
2023-07-19T09:23:26.013Z,23.22
2023-07-19T09:25:53.050Z,23.27
2023-07-19T09:28:21.053Z,23.35
2023-07-19T09:30:54.491Z,23.27
2023-07-19T09:33:21.466Z,23.01
2023-07-19T09:35:53.593Z,23.50
2023-07-19T09:38:21.873Z,23.62
2023-07-19T09:40:48.996Z,23.60
2023-07-19T09:43:17.284Z,23.67
2023-07-19T09:45:44.085Z,23.86
2023-07-19T09:48:11.539Z,23.93
2023-07-19T09:50:39.645Z,23.57
2023-07-19T09:53:08.754Z,23.37
2023-07-19T09:55:37.158Z,23.31
2023-07-19T09:58:06.093Z,22.97
2023-07-19T10:00:32.667Z,23.16
2023-07-19T10:02:59.713Z,22.81
2023-07-19T10:05:30.256Z,23.56
2023-07-19T10:08:02.345Z,23.26
2023-07-19T10:10:37.337Z,23.94
2023-07-19T10:13:03.968Z,24.15
2023-07-19T10:15:30.548Z,24.25
2023-07-19T10:17:58.396Z,24.18
2023-07-19T10:20:28.178Z,23.86
2023-07-19T10:22:56.353Z,23.80
2023-07-19T10:25:25.239Z,23.70
2023-07-19T10:28:02.463Z,23.94
2023-07-19T10:30:54.303Z,23.62
2023-07-19T10:33:22.729Z,23.79
2023-07-19T10:35:50.547Z,24.17
2023-07-19T10:38:18.558Z,24.15
2023-07-19T10:40:47.428Z,23.94
2023-07-19T10:43:17.268Z,23.55
2023-07-19T10:45:48.974Z,23.72
2023-07-19T10:48:15.496Z,23.43
2023-07-19T10:50:43.741Z,23.23
2023-07-19T10:53:10.651Z,23.91
2023-07-19T10:58:06.834Z,24.34
2023-07-19T11:00:37.289Z,23.94
2023-07-19T11:03:03.900Z,24.21
2023-07-19T11:05:30.460Z,23.82
2023-07-19T11:07:56.928Z,23.72
2023-07-19T11:10:23.603Z,24.10
2023-07-19T11:12:50.102Z,24.29
2023-07-19T11:15:18.015Z,24.49
2023-07-19T11:17:45.785Z,24.63
2023-07-19T11:20:12.365Z,24.84
2023-07-19T11:22:38.910Z,24.95
2023-07-19T11:25:11.419Z,24.16
2023-07-19T11:27:38.269Z,24.57
2023-07-19T11:30:05.897Z,24.63
2023-07-19T11:32:32.427Z,24.42
2023-07-19T11:35:01.973Z,24.44
2023-07-19T11:37:31.854Z,24.78
2023-07-19T11:39:59.809Z,25.02
2023-07-19T11:42:43.628Z,24.87
2023-07-19T11:45:12.172Z,24.58
2023-07-19T11:47:39.632Z,24.76
2023-07-19T11:50:08.772Z,25.11
2023-07-19T11:52:46.410Z,25.24
2023-07-19T11:55:13.240Z,25.19
2023-07-19T11:57:39.750Z,24.96
2023-07-19T12:00:08.001Z,24.58
2023-07-19T12:02:34.883Z,25.07
2023-07-19T12:05:01.359Z,25.27
2023-07-19T12:07:29.117Z,25.27
2023-07-19T12:09:55.609Z,25.17
2023-07-19T12:12:22.202Z,25.28
2023-07-19T12:14:48.731Z,25.01
2023-07-19T12:17:15.437Z,25.04
2023-07-19T12:19:41.925Z,24.72
2023-07-19T12:24:39.124Z,24.43
2023-07-19T12:27:05.805Z,24.57
2023-07-19T12:29:38.411Z,24.84
2023-07-19T12:32:11.147Z,24.35
2023-07-19T12:34:37.629Z,24.29
2023-07-19T12:37:04.728Z,24.56
2023-07-19T12:39:31.212Z,24.62
2023-07-19T12:41:59.005Z,24.78
2023-07-19T12:44:25.697Z,24.82
2023-07-19T12:46:52.364Z,24.84
2023-07-19T12:49:19.338Z,24.62
2023-07-19T12:51:45.883Z,25.13
2023-07-19T12:54:12.411Z,24.95
2023-07-19T12:56:39.045Z,25.21
2023-07-19T12:59:08.202Z,25.17
2023-07-19T13:01:35.260Z,24.60
2023-07-19T13:04:02.054Z,24.40
2023-07-19T13:06:28.579Z,24.65
2023-07-19T13:08:55.212Z,24.73
2023-07-19T13:11:21.688Z,24.86
2023-07-19T13:13:48.134Z,24.54
2023-07-19T13:16:16.046Z,24.51
2023-07-19T13:18:42.530Z,23.81
2023-07-19T13:21:08.965Z,24.00
2023-07-19T13:23:35.662Z,24.34
2023-07-19T13:26:02.185Z,24.53
2023-07-19T13:28:28.632Z,24.45
2023-07-19T13:30:59.177Z,24.49
2023-07-19T13:33:27.782Z,24.71
2023-07-19T13:35:55.018Z,24.82
2023-07-19T13:38:24.429Z,24.83
2023-07-19T13:40:51.553Z,24.61
2023-07-19T13:43:18.116Z,25.03
2023-07-19T13:45:44.576Z,24.94
2023-07-19T13:48:11.117Z,24.94
2023-07-19T13:50:39.436Z,24.64
2023-07-19T13:53:06.425Z,24.90
2023-07-19T13:55:33.578Z,24.85
2023-07-19T13:58:00.054Z,23.82
2023-07-19T14:00:27.232Z,24.42
2023-07-19T14:02:53.763Z,24.46
2023-07-19T14:05:20.582Z,24.54
2023-07-19T14:07:48.422Z,24.56
2023-07-19T14:10:14.895Z,24.30
2023-07-19T14:12:41.552Z,24.55
2023-07-19T14:15:09.165Z,24.38
2023-07-19T14:17:36.109Z,24.25
2023-07-19T14:20:02.952Z,24.45
2023-07-19T14:22:29.432Z,24.55
2023-07-19T14:24:57.309Z,24.33
2023-07-19T14:27:23.944Z,24.58
2023-07-19T14:29:50.425Z,24.79
2023-07-19T14:32:16.923Z,24.67
2023-07-19T14:34:47.093Z,24.94
2023-07-19T14:37:14.334Z,24.91
2023-07-19T14:39:43.913Z,25.01
2023-07-19T14:42:12.669Z,25.02
2023-07-19T14:44:39.158Z,24.92
2023-07-19T14:47:06.500Z,24.71
2023-07-19T14:49:33.014Z,24.61
2023-07-19T14:51:59.628Z,24.56
2023-07-19T14:54:26.692Z,24.74
2023-07-19T14:56:53.168Z,24.81
2023-07-19T14:59:21.064Z,24.64
2023-07-19T15:01:48.364Z,24.26
2023-07-19T15:04:14.952Z,24.51
2023-07-19T15:06:41.482Z,24.42
2023-07-19T15:09:08.437Z,24.65
2023-07-19T15:11:35.043Z,24.48
2023-07-19T15:14:01.517Z,24.70
2023-07-19T15:16:29.446Z,24.83
2023-07-19T15:23:51.031Z,24.52
2023-07-19T15:26:32.146Z,24.31
2023-07-19T15:29:00.991Z,23.97
2023-07-19T15:31:29.030Z,24.19
2023-07-19T15:33:55.575Z,24.28
2023-07-19T15:36:22.266Z,24.25
2023-07-19T15:38:49.139Z,24.37
2023-07-19T15:41:15.606Z,24.28
2023-07-19T15:43:45.021Z,23.40
2023-07-19T15:46:11.672Z,23.70
2023-07-19T15:48:39.517Z,23.35
2023-07-19T15:51:06.761Z,23.42
2023-07-19T15:53:34.916Z,23.93
2023-07-19T15:56:01.360Z,23.91
2023-07-19T15:58:27.969Z,23.40
2023-07-19T16:00:55.027Z,23.35
2023-07-19T16:03:21.584Z,23.88
2023-07-19T16:05:49.543Z,23.59
2023-07-19T16:08:15.971Z,23.60
2023-07-19T16:10:42.459Z,23.20
2023-07-19T16:13:08.963Z,23.20
2023-07-19T16:15:35.422Z,23.49
2023-07-19T16:18:01.983Z,23.43
2023-07-19T16:20:28.669Z,23.63
2023-07-19T16:22:56.572Z,23.29
2023-07-19T16:25:23.129Z,23.03
2023-07-19T16:27:49.621Z,23.32
2023-07-19T16:30:16.239Z,23.23
2023-07-19T16:32:42.770Z,23.41
2023-07-19T16:35:09.758Z,22.78
2023-07-19T16:37:36.279Z,23.14
2023-07-19T16:40:04.630Z,22.82
2023-07-19T16:42:31.084Z,23.12
2023-07-19T16:44:57.512Z,23.19
2023-07-19T16:47:24.086Z,23.20
2023-07-19T16:49:50.606Z,22.45
2023-07-19T16:52:17.124Z,22.77
2023-07-19T16:54:43.627Z,22.86
2023-07-19T16:57:11.456Z,22.54
2023-07-19T16:59:37.976Z,22.61
2023-07-19T17:02:04.647Z,22.38
2023-07-19T17:04:31.384Z,22.64
2023-07-19T17:06:57.877Z,22.57
2023-07-19T17:09:24.316Z,22.79
2023-07-19T17:11:51.219Z,22.84
2023-07-19T17:14:19.064Z,22.57
2023-07-19T17:16:54.630Z,22.26
2023-07-19T17:19:28.633Z,22.24
2023-07-19T17:21:55.122Z,22.08
2023-07-19T17:24:21.567Z,22.20
2023-07-19T17:26:48.255Z,22.71
2023-07-19T17:29:14.781Z,22.45
2023-07-19T17:31:42.574Z,22.64
2023-07-19T17:34:09.067Z,22.95
2023-07-19T17:36:35.522Z,22.78
2023-07-19T17:39:01.988Z,22.56
2023-07-19T17:41:29.154Z,22.58
2023-07-19T17:43:55.610Z,22.65
2023-07-19T17:46:22.074Z,22.85
2023-07-19T17:48:49.840Z,22.53
2023-07-19T17:51:16.336Z,22.55
2023-07-19T17:53:42.892Z,22.81
2023-07-19T17:56:09.471Z,22.89
2023-07-19T17:58:35.954Z,22.81
2023-07-19T18:01:04.595Z,22.97
2023-07-19T18:03:31.205Z,22.67
2023-07-19T18:05:59.144Z,22.48
2023-07-19T18:08:28.892Z,22.67
2023-07-19T18:10:56.165Z,23.11
2023-07-19T18:13:22.638Z,22.74
2023-07-19T18:15:49.112Z,22.63
2023-07-19T18:18:15.710Z,22.60
2023-07-19T18:20:42.289Z,22.63
2023-07-19T18:23:10.370Z,22.52
2023-07-19T18:25:36.893Z,22.63
2023-07-19T18:28:03.383Z,22.56
2023-07-19T18:30:29.978Z,22.72
2023-07-19T18:32:56.815Z,22.39
2023-07-19T18:35:23.344Z,22.43
2023-07-19T18:37:49.787Z,22.52
2023-07-19T18:40:17.664Z,21.95
2023-07-19T18:42:44.125Z,22.32
2023-07-19T18:45:11.208Z,22.44
2023-07-19T18:47:37.984Z,22.28
2023-07-19T18:50:05.304Z,22.45
2023-07-19T18:52:32.059Z,22.36
2023-07-19T18:54:58.553Z,22.22
2023-07-19T18:57:26.327Z,22.26
2023-07-19T18:59:52.828Z,22.37
2023-07-19T19:02:19.290Z,22.17
2023-07-19T19:04:45.723Z,22.09
2023-07-19T19:07:12.172Z,22.07
2023-07-19T19:09:38.732Z,22.00
2023-07-19T19:12:06.021Z,22.02
2023-07-19T19:14:33.909Z,22.11
2023-07-19T19:17:00.692Z,22.15
2023-07-19T19:19:27.173Z,22.08
2023-07-19T19:21:53.726Z,22.10
2023-07-19T19:24:20.185Z,22.40
2023-07-19T19:26:46.626Z,22.03
2023-07-19T19:29:13.081Z,22.03
2023-07-19T19:31:40.887Z,22.10
2023-07-19T19:34:07.394Z,22.47
2023-07-19T19:36:34.011Z,21.89
2023-07-19T19:39:01.554Z,22.09
2023-07-19T19:41:29.332Z,22.22
2023-07-19T19:43:55.790Z,22.06
2023-07-19T19:46:22.360Z,22.07
2023-07-19T19:48:50.255Z,22.12
2023-07-19T19:51:16.713Z,21.80
2023-07-19T19:53:43.322Z,21.78
2023-07-19T19:58:39.106Z,21.94
2023-07-19T20:01:08.536Z,21.89
2023-07-19T20:03:36.617Z,21.61
2023-07-19T20:06:04.802Z,21.81
2023-07-19T20:08:31.308Z,21.77
2023-07-19T20:10:59.945Z,21.35
2023-07-19T20:13:27.000Z,21.24
2023-07-19T20:15:53.833Z,21.12
2023-07-19T20:18:20.512Z,21.02
2023-07-19T20:20:50.685Z,20.95
2023-07-19T20:23:21.334Z,20.93
2023-07-19T20:26:11.251Z,21.00
2023-07-19T20:28:34.720Z,21.02
2023-07-19T20:31:05.790Z,20.72
2023-07-19T20:33:34.438Z,20.66
2023-07-19T20:36:07.445Z,21.06
2023-07-19T20:43:34.836Z,20.59
2023-07-19T20:48:39.184Z,20.91
2023-07-19T20:51:09.392Z,21.01
2023-07-19T20:53:37.285Z,20.73
2023-07-19T20:56:05.496Z,20.87
2023-07-19T20:58:32.140Z,20.80
2023-07-19T21:01:01.224Z,20.43
2023-07-19T21:03:28.056Z,20.52
2023-07-19T21:05:54.599Z,20.60
2023-07-19T21:08:21.182Z,20.46
2023-07-19T21:10:49.495Z,20.64
2023-07-19T21:13:16.026Z,20.60
2023-07-19T21:15:42.567Z,20.39
2023-07-19T21:18:09.072Z,20.56
2023-07-19T21:20:35.842Z,20.24
2023-07-19T21:23:03.218Z,20.39
2023-07-19T21:25:31.859Z,20.22
2023-07-19T21:27:59.665Z,20.43
2023-07-19T21:30:29.127Z,20.45
2023-07-19T21:32:57.753Z,20.07
2023-07-19T21:35:24.222Z,20.02
2023-07-19T21:37:50.798Z,20.10
2023-07-19T21:40:18.478Z,20.00
2023-07-19T21:42:45.049Z,19.88
2023-07-19T21:45:13.499Z,20.02
2023-07-19T21:47:40.544Z,20.01
2023-07-19T21:50:07.808Z,19.98
2023-07-19T21:52:34.269Z,20.10
2023-07-19T21:55:00.751Z,19.84
2023-07-19T21:57:27.206Z,19.90
2023-07-19T21:59:53.677Z,19.76
2023-07-19T22:02:21.651Z,20.11
2023-07-19T22:04:48.116Z,19.99
2023-07-19T22:07:14.596Z,19.70
2023-07-19T22:09:41.084Z,19.67
2023-07-19T22:12:08.975Z,19.82
2023-07-19T22:14:35.577Z,19.64
2023-07-19T22:17:02.173Z,19.63
2023-07-19T22:19:30.099Z,19.82
2023-07-19T22:21:56.677Z,19.81
2023-07-19T22:24:23.290Z,19.82
2023-07-19T22:26:49.849Z,19.75
2023-07-19T22:29:16.331Z,19.78
2023-07-19T22:31:43.036Z,19.79
2023-07-19T22:34:09.549Z,19.88
2023-07-19T22:36:37.330Z,20.13
2023-07-19T22:39:04.032Z,19.73
2023-07-19T22:41:30.533Z,19.80
2023-07-19T22:43:57.042Z,19.68
2023-07-19T22:46:25.826Z,19.72
2023-07-19T22:48:52.552Z,19.83
2023-07-19T22:51:18.989Z,19.70
2023-07-19T22:53:46.801Z,19.57
2023-07-19T22:56:13.571Z,20.33
2023-07-19T22:58:40.035Z,19.93
2023-07-19T23:01:06.679Z,20.09
2023-07-19T23:03:33.222Z,20.05
2023-07-19T23:05:59.961Z,19.91
2023-07-19T23:08:26.707Z,19.91
2023-07-19T23:10:54.508Z,19.56
2023-07-19T23:13:21.038Z,19.75
2023-07-19T23:15:47.509Z,19.68
2023-07-19T23:18:13.997Z,19.53
2023-07-19T23:20:40.475Z,19.60
2023-07-19T23:23:07.033Z,19.45
2023-07-19T23:25:33.577Z,19.72
2023-07-19T23:28:01.404Z,19.59
2023-07-19T23:30:28.160Z,19.46
2023-07-19T23:32:54.873Z,19.35
2023-07-19T23:35:21.473Z,19.67
2023-07-19T23:37:48.003Z,19.62
2023-07-19T23:40:14.549Z,19.44
2023-07-19T23:42:41.050Z,19.46
2023-07-19T23:45:10.052Z,19.32
2023-07-19T23:47:36.907Z,19.23
2023-07-19T23:50:03.956Z,19.41
2023-07-19T23:52:30.602Z,19.19
2023-07-19T23:54:57.099Z,19.60
2023-07-19T23:57:23.681Z,19.67
2023-07-19T23:59:50.193Z,19.32
